sensor_id;sensor_type;location;lat;lon;timestamp;P1;durP1;ratioP1;P2;durP2;ratioP2
32501;SDS011;18952;52.516;13.460;2024-02-21T00:00:24;31.05;;;10.02;;
32501;SDS011;18952;52.516;13.460;2024-02-21T00:02:54;27.47;;;9.43;;
32501;SDS011;18952;52.516;13.460;2024-02-21T00:05:23;29.88;;;9.55;;
32501;SDS011;18952;52.516;13.460;2024-02-21T00:07:50;33.60;;;9.70;;
32501;SDS011;18952;52.516;13.460;2024-02-21T00:10:17;28.10;;;9.25;;
32501;SDS011;18952;52.516;13.460;2024-02-21T00:12:45;31.03;;;9.47;;
32501;SDS011;18952;52.516;13.460;2024-02-21T00:15:14;32.42;;;9.68;;
32501;SDS011;18952;52.516;13.460;2024-02-21T00:17:43;32.10;;;9.02;;
32501;SDS011;18952;52.516;13.460;2024-02-21T00:20:11;28.20;;;9.32;;
32501;SDS011;18952;52.516;13.460;2024-02-21T00:22:39;28.27;;;8.98;;
32501;SDS011;18952;52.516;13.460;2024-02-21T00:25:06;27.63;;;9.63;;
32501;SDS011;18952;52.516;13.460;2024-02-21T00:27:34;29.30;;;9.48;;
32501;SDS011;18952;52.516;13.460;2024-02-21T00:30:05;32.83;;;9.40;;
32501;SDS011;18952;52.516;13.460;2024-02-21T00:32:32;27.87;;;9.37;;
32501;SDS011;18952;52.516;13.460;2024-02-21T00:35:00;29.25;;;8.93;;
32501;SDS011;18952;52.516;13.460;2024-02-21T00:37:29;31.23;;;9.15;;
32501;SDS011;18952;52.516;13.460;2024-02-21T00:39:55;33.75;;;9.32;;
32501;SDS011;18952;52.516;13.460;2024-02-21T00:42:23;27.55;;;8.65;;
32501;SDS011;18952;52.516;13.460;2024-02-21T00:44:52;33.13;;;9.15;;
32501;SDS011;18952;52.516;13.460;2024-02-21T00:47:18;29.42;;;8.77;;
32501;SDS011;18952;52.516;13.460;2024-02-21T00:49:49;28.58;;;9.32;;
32501;SDS011;18952;52.516;13.460;2024-02-21T00:52:18;35.35;;;8.90;;
32501;SDS011;18952;52.516;13.460;2024-02-21T00:54:49;32.42;;;8.55;;
32501;SDS011;18952;52.516;13.460;2024-02-21T00:57:21;26.83;;;8.60;;
32501;SDS011;18952;52.516;13.460;2024-02-21T00:59:49;29.40;;;8.85;;
32501;SDS011;18952;52.516;13.460;2024-02-21T01:02:18;22.38;;;8.13;;
32501;SDS011;18952;52.516;13.460;2024-02-21T01:04:46;30.00;;;8.32;;
32501;SDS011;18952;52.516;13.460;2024-02-21T01:07:14;24.08;;;7.85;;
32501;SDS011;18952;52.516;13.460;2024-02-21T01:09:43;35.67;;;8.52;;
32501;SDS011;18952;52.516;13.460;2024-02-21T01:12:12;30.45;;;8.43;;
32501;SDS011;18952;52.516;13.460;2024-02-21T01:14:39;22.35;;;8.00;;
32501;SDS011;18952;52.516;13.460;2024-02-21T01:17:06;20.35;;;7.63;;
32501;SDS011;18952;52.516;13.460;2024-02-21T01:19:36;22.52;;;7.97;;
32501;SDS011;18952;52.516;13.460;2024-02-21T01:22:04;28.77;;;7.80;;
32501;SDS011;18952;52.516;13.460;2024-02-21T01:24:33;24.45;;;8.43;;
32501;SDS011;18952;52.516;13.460;2024-02-21T01:27:05;27.87;;;8.30;;
32501;SDS011;18952;52.516;13.460;2024-02-21T01:29:31;27.90;;;8.25;;
32501;SDS011;18952;52.516;13.460;2024-02-21T01:31:59;27.70;;;8.40;;
32501;SDS011;18952;52.516;13.460;2024-02-21T01:34:26;22.60;;;7.93;;
32501;SDS011;18952;52.516;13.460;2024-02-21T01:36:58;31.25;;;8.50;;
32501;SDS011;18952;52.516;13.460;2024-02-21T01:39:25;25.00;;;7.72;;
32501;SDS011;18952;52.516;13.460;2024-02-21T01:41:55;21.20;;;8.05;;
32501;SDS011;18952;52.516;13.460;2024-02-21T01:44:22;21.33;;;7.80;;
32501;SDS011;18952;52.516;13.460;2024-02-21T01:46:50;21.05;;;7.45;;
32501;SDS011;18952;52.516;13.460;2024-02-21T01:49:21;20.77;;;7.78;;
32501;SDS011;18952;52.516;13.460;2024-02-21T01:51:54;30.52;;;8.00;;
32501;SDS011;18952;52.516;13.460;2024-02-21T01:54:23;25.80;;;8.13;;
32501;SDS011;18952;52.516;13.460;2024-02-21T01:56:53;22.27;;;8.23;;
32501;SDS011;18952;52.516;13.460;2024-02-21T01:59:21;21.17;;;7.88;;
32501;SDS011;18952;52.516;13.460;2024-02-21T02:01:49;24.90;;;8.25;;
32501;SDS011;18952;52.516;13.460;2024-02-21T02:04:18;21.35;;;7.90;;
32501;SDS011;18952;52.516;13.460;2024-02-21T02:06:46;25.33;;;8.43;;
32501;SDS011;18952;52.516;13.460;2024-02-21T02:09:13;25.23;;;8.73;;
32501;SDS011;18952;52.516;13.460;2024-02-21T02:11:42;25.73;;;8.40;;
32501;SDS011;18952;52.516;13.460;2024-02-21T02:14:10;26.92;;;8.18;;
32501;SDS011;18952;52.516;13.460;2024-02-21T02:16:37;23.45;;;8.00;;
32501;SDS011;18952;52.516;13.460;2024-02-21T02:19:06;21.52;;;7.32;;
32501;SDS011;18952;52.516;13.460;2024-02-21T02:21:38;24.65;;;7.90;;
32501;SDS011;18952;52.516;13.460;2024-02-21T02:24:08;23.38;;;7.30;;
32501;SDS011;18952;52.516;13.460;2024-02-21T02:26:36;22.07;;;7.63;;
32501;SDS011;18952;52.516;13.460;2024-02-21T02:29:04;22.42;;;7.78;;
32501;SDS011;18952;52.516;13.460;2024-02-21T02:31:31;25.30;;;8.15;;
32501;SDS011;18952;52.516;13.460;2024-02-21T02:33:59;24.85;;;8.40;;
32501;SDS011;18952;52.516;13.460;2024-02-21T02:36:27;25.20;;;8.15;;
32501;SDS011;18952;52.516;13.460;2024-02-21T02:38:55;29.27;;;8.63;;
32501;SDS011;18952;52.516;13.460;2024-02-21T02:41:21;26.23;;;8.90;;
32501;SDS011;18952;52.516;13.460;2024-02-21T02:43:50;27.83;;;8.20;;
32501;SDS011;18952;52.516;13.460;2024-02-21T02:46:19;24.40;;;8.48;;
32501;SDS011;18952;52.516;13.460;2024-02-21T02:48:48;26.63;;;8.17;;
32501;SDS011;18952;52.516;13.460;2024-02-21T02:51:15;30.75;;;8.70;;
32501;SDS011;18952;52.516;13.460;2024-02-21T02:53:43;23.73;;;8.77;;
32501;SDS011;18952;52.516;13.460;2024-02-21T02:56:14;32.08;;;10.18;;
32501;SDS011;18952;52.516;13.460;2024-02-21T02:58:42;35.63;;;9.40;;
32501;SDS011;18952;52.516;13.460;2024-02-21T03:01:09;34.53;;;10.20;;
32501;SDS011;18952;52.516;13.460;2024-02-21T03:03:39;26.08;;;8.93;;
32501;SDS011;18952;52.516;13.460;2024-02-21T03:06:06;28.45;;;9.70;;
32501;SDS011;18952;52.516;13.460;2024-02-21T03:08:33;31.08;;;9.20;;
32501;SDS011;18952;52.516;13.460;2024-02-21T03:11:00;23.13;;;9.18;;
32501;SDS011;18952;52.516;13.460;2024-02-21T03:13:29;28.35;;;9.93;;
32501;SDS011;18952;52.516;13.460;2024-02-21T03:15:57;38.00;;;10.50;;
32501;SDS011;18952;52.516;13.460;2024-02-21T03:18:25;29.45;;;10.45;;
32501;SDS011;18952;52.516;13.460;2024-02-21T03:20:53;28.35;;;10.40;;
32501;SDS011;18952;52.516;13.460;2024-02-21T03:23:20;27.25;;;10.65;;
32501;SDS011;18952;52.516;13.460;2024-02-21T03:25:48;29.73;;;10.52;;
32501;SDS011;18952;52.516;13.460;2024-02-21T03:28:16;29.00;;;10.88;;
32501;SDS011;18952;52.516;13.460;2024-02-21T03:30:44;33.08;;;11.07;;
32501;SDS011;18952;52.516;13.460;2024-02-21T03:33:12;28.13;;;11.00;;
32501;SDS011;18952;52.516;13.460;2024-02-21T03:35:40;27.67;;;10.77;;
32501;SDS011;18952;52.516;13.460;2024-02-21T03:38:11;27.55;;;11.05;;
32501;SDS011;18952;52.516;13.460;2024-02-21T03:40:42;28.90;;;11.80;;
32501;SDS011;18952;52.516;13.460;2024-02-21T03:43:10;34.22;;;12.60;;
32501;SDS011;18952;52.516;13.460;2024-02-21T03:45:42;30.20;;;11.95;;
32501;SDS011;18952;52.516;13.460;2024-02-21T03:48:10;34.23;;;12.87;;
32501;SDS011;18952;52.516;13.460;2024-02-21T03:50:39;31.40;;;13.10;;
32501;SDS011;18952;52.516;13.460;2024-02-21T03:53:06;36.25;;;13.82;;
32501;SDS011;18952;52.516;13.460;2024-02-21T03:55:34;31.17;;;13.32;;
32501;SDS011;18952;52.516;13.460;2024-02-21T03:58:02;34.88;;;13.80;;
32501;SDS011;18952;52.516;13.460;2024-02-21T04:00:30;42.95;;;14.13;;
32501;SDS011;18952;52.516;13.460;2024-02-21T04:02:57;30.90;;;13.60;;
32501;SDS011;18952;52.516;13.460;2024-02-21T04:05:26;32.83;;;13.75;;
32501;SDS011;18952;52.516;13.460;2024-02-21T04:07:53;36.88;;;14.38;;
32501;SDS011;18952;52.516;13.460;2024-02-21T04:10:20;36.67;;;14.15;;
32501;SDS011;18952;52.516;13.460;2024-02-21T04:12:48;32.37;;;14.20;;
32501;SDS011;18952;52.516;13.460;2024-02-21T04:15:16;34.13;;;14.15;;
32501;SDS011;18952;52.516;13.460;2024-02-21T04:17:44;31.58;;;14.05;;
32501;SDS011;18952;52.516;13.460;2024-02-21T04:20:14;33.65;;;14.60;;
32501;SDS011;18952;52.516;13.460;2024-02-21T04:22:46;32.47;;;13.88;;
32501;SDS011;18952;52.516;13.460;2024-02-21T04:25:12;34.22;;;14.55;;
32501;SDS011;18952;52.516;13.460;2024-02-21T04:27:40;34.63;;;14.57;;
32501;SDS011;18952;52.516;13.460;2024-02-21T04:30:07;32.20;;;14.63;;
32501;SDS011;18952;52.516;13.460;2024-02-21T04:32:36;40.17;;;14.77;;
32501;SDS011;18952;52.516;13.460;2024-02-21T04:35:03;36.65;;;15.05;;
32501;SDS011;18952;52.516;13.460;2024-02-21T04:37:32;36.03;;;14.70;;
32501;SDS011;18952;52.516;13.460;2024-02-21T04:40:02;32.40;;;14.00;;
32501;SDS011;18952;52.516;13.460;2024-02-21T04:42:32;34.67;;;14.40;;
32501;SDS011;18952;52.516;13.460;2024-02-21T04:45:00;34.22;;;13.98;;
32501;SDS011;18952;52.516;13.460;2024-02-21T04:47:28;33.67;;;13.05;;
32501;SDS011;18952;52.516;13.460;2024-02-21T04:49:56;32.53;;;13.65;;
32501;SDS011;18952;52.516;13.460;2024-02-21T04:52:24;30.83;;;13.50;;
32501;SDS011;18952;52.516;13.460;2024-02-21T04:54:51;29.33;;;12.93;;
32501;SDS011;18952;52.516;13.460;2024-02-21T04:57:19;41.05;;;14.35;;
32501;SDS011;18952;52.516;13.460;2024-02-21T04:59:46;32.72;;;13.68;;
32501;SDS011;18952;52.516;13.460;2024-02-21T05:02:14;32.15;;;12.85;;
32501;SDS011;18952;52.516;13.460;2024-02-21T05:04:43;35.67;;;13.27;;
32501;SDS011;18952;52.516;13.460;2024-02-21T05:07:18;33.63;;;14.13;;
32501;SDS011;18952;52.516;13.460;2024-02-21T05:09:45;39.70;;;13.75;;
32501;SDS011;18952;52.516;13.460;2024-02-21T05:12:13;36.07;;;13.50;;
32501;SDS011;18952;52.516;13.460;2024-02-21T05:14:42;36.20;;;14.38;;
32501;SDS011;18952;52.516;13.460;2024-02-21T05:17:11;34.28;;;13.88;;
32501;SDS011;18952;52.516;13.460;2024-02-21T05:19:40;39.00;;;15.07;;
32501;SDS011;18952;52.516;13.460;2024-02-21T05:22:06;31.13;;;13.35;;
32501;SDS011;18952;52.516;13.460;2024-02-21T05:24:34;35.85;;;14.50;;
32501;SDS011;18952;52.516;13.460;2024-02-21T05:27:03;36.35;;;14.20;;
32501;SDS011;18952;52.516;13.460;2024-02-21T05:29:33;36.85;;;14.65;;
32501;SDS011;18952;52.516;13.460;2024-02-21T05:32:01;35.50;;;14.00;;
32501;SDS011;18952;52.516;13.460;2024-02-21T05:34:29;32.10;;;14.18;;
32501;SDS011;18952;52.516;13.460;2024-02-21T05:36:56;36.67;;;14.68;;
32501;SDS011;18952;52.516;13.460;2024-02-21T05:39:23;35.53;;;14.77;;
32501;SDS011;18952;52.516;13.460;2024-02-21T05:41:50;35.03;;;14.73;;
32501;SDS011;18952;52.516;13.460;2024-02-21T05:44:18;32.95;;;14.20;;
32501;SDS011;18952;52.516;13.460;2024-02-21T05:46:46;34.38;;;14.07;;
32501;SDS011;18952;52.516;13.460;2024-02-21T05:49:13;30.60;;;14.02;;
32501;SDS011;18952;52.516;13.460;2024-02-21T05:51:42;33.80;;;14.80;;
32501;SDS011;18952;52.516;13.460;2024-02-21T05:54:13;34.95;;;14.65;;
32501;SDS011;18952;52.516;13.460;2024-02-21T05:56:43;34.83;;;14.63;;
32501;SDS011;18952;52.516;13.460;2024-02-21T05:59:12;38.70;;;14.77;;
32501;SDS011;18952;52.516;13.460;2024-02-21T06:01:42;31.35;;;14.75;;
32501;SDS011;18952;52.516;13.460;2024-02-21T06:04:10;31.67;;;14.80;;
32501;SDS011;18952;52.516;13.460;2024-02-21T06:06:38;30.08;;;14.15;;
32501;SDS011;18952;52.516;13.460;2024-02-21T06:09:04;30.48;;;14.98;;
32501;SDS011;18952;52.516;13.460;2024-02-21T06:11:31;30.38;;;14.25;;
32501;SDS011;18952;52.516;13.460;2024-02-21T06:13:58;27.92;;;14.60;;
32501;SDS011;18952;52.516;13.460;2024-02-21T06:16:26;31.30;;;14.45;;
32501;SDS011;18952;52.516;13.460;2024-02-21T06:18:55;30.02;;;14.68;;
32501;SDS011;18952;52.516;13.460;2024-02-21T06:21:21;35.83;;;15.50;;
32501;SDS011;18952;52.516;13.460;2024-02-21T06:23:50;33.00;;;14.97;;
32501;SDS011;18952;52.516;13.460;2024-02-21T06:26:17;34.08;;;14.80;;
32501;SDS011;18952;52.516;13.460;2024-02-21T06:28:44;33.80;;;14.80;;
32501;SDS011;18952;52.516;13.460;2024-02-21T06:31:11;32.10;;;15.23;;
32501;SDS011;18952;52.516;13.460;2024-02-21T06:33:40;32.65;;;14.48;;
32501;SDS011;18952;52.516;13.460;2024-02-21T06:36:07;29.85;;;15.00;;
32501;SDS011;18952;52.516;13.460;2024-02-21T06:38:35;28.20;;;14.70;;
32501;SDS011;18952;52.516;13.460;2024-02-21T06:41:02;32.80;;;14.73;;
32501;SDS011;18952;52.516;13.460;2024-02-21T06:43:29;32.95;;;15.32;;
32501;SDS011;18952;52.516;13.460;2024-02-21T06:45:56;28.77;;;16.48;;
32501;SDS011;18952;52.516;13.460;2024-02-21T06:48:25;32.75;;;17.23;;
32501;SDS011;18952;52.516;13.460;2024-02-21T06:50:53;34.85;;;17.45;;
32501;SDS011;18952;52.516;13.460;2024-02-21T06:53:20;33.60;;;16.25;;
32501;SDS011;18952;52.516;13.460;2024-02-21T06:55:48;31.48;;;15.20;;
32501;SDS011;18952;52.516;13.460;2024-02-21T06:58:16;30.00;;;16.15;;
32501;SDS011;18952;52.516;13.460;2024-02-21T07:00:44;35.00;;;15.48;;
32501;SDS011;18952;52.516;13.460;2024-02-21T07:03:14;28.55;;;15.50;;
32501;SDS011;18952;52.516;13.460;2024-02-21T07:05:43;29.33;;;15.45;;
32501;SDS011;18952;52.516;13.460;2024-02-21T07:08:12;26.13;;;14.68;;
32501;SDS011;18952;52.516;13.460;2024-02-21T07:10:42;25.90;;;15.40;;
32501;SDS011;18952;52.516;13.460;2024-02-21T07:13:09;28.15;;;14.88;;
32501;SDS011;18952;52.516;13.460;2024-02-21T07:15:37;28.55;;;15.05;;
32501;SDS011;18952;52.516;13.460;2024-02-21T07:18:05;30.77;;;14.98;;
32501;SDS011;18952;52.516;13.460;2024-02-21T07:20:33;29.73;;;15.45;;
32501;SDS011;18952;52.516;13.460;2024-02-21T07:23:00;29.13;;;15.13;;
32501;SDS011;18952;52.516;13.460;2024-02-21T07:25:29;33.88;;;15.23;;
32501;SDS011;18952;52.516;13.460;2024-02-21T07:27:59;27.10;;;14.38;;
32501;SDS011;18952;52.516;13.460;2024-02-21T07:30:30;27.17;;;14.88;;
32501;SDS011;18952;52.516;13.460;2024-02-21T07:33:02;35.25;;;14.57;;
32501;SDS011;18952;52.516;13.460;2024-02-21T07:35:30;31.58;;;14.80;;
32501;SDS011;18952;52.516;13.460;2024-02-21T07:37:58;26.98;;;14.45;;
32501;SDS011;18952;52.516;13.460;2024-02-21T07:40:26;25.33;;;13.63;;
32501;SDS011;18952;52.516;13.460;2024-02-21T07:42:53;24.92;;;13.45;;
32501;SDS011;18952;52.516;13.460;2024-02-21T07:45:20;22.58;;;13.15;;
32501;SDS011;18952;52.516;13.460;2024-02-21T07:47:47;26.20;;;13.70;;
32501;SDS011;18952;52.516;13.460;2024-02-21T07:50:15;25.23;;;13.05;;
32501;SDS011;18952;52.516;13.460;2024-02-21T07:52:43;25.75;;;13.25;;
32501;SDS011;18952;52.516;13.460;2024-02-21T07:55:11;22.20;;;12.50;;
32501;SDS011;18952;52.516;13.460;2024-02-21T07:57:39;26.17;;;12.40;;
32501;SDS011;18952;52.516;13.460;2024-02-21T08:00:09;24.92;;;12.32;;
32501;SDS011;18952;52.516;13.460;2024-02-21T08:02:39;22.55;;;12.32;;
32501;SDS011;18952;52.516;13.460;2024-02-21T08:05:10;29.33;;;12.93;;
32501;SDS011;18952;52.516;13.460;2024-02-21T08:07:36;25.50;;;11.87;;
32501;SDS011;18952;52.516;13.460;2024-02-21T08:10:05;24.02;;;11.82;;
32501;SDS011;18952;52.516;13.460;2024-02-21T08:12:32;26.63;;;11.82;;
32501;SDS011;18952;52.516;13.460;2024-02-21T08:14:59;24.65;;;12.40;;
32501;SDS011;18952;52.516;13.460;2024-02-21T08:17:29;23.95;;;11.63;;
32501;SDS011;18952;52.516;13.460;2024-02-21T08:19:59;24.10;;;11.60;;
32501;SDS011;18952;52.516;13.460;2024-02-21T08:22:29;28.65;;;12.18;;
32501;SDS011;18952;52.516;13.460;2024-02-21T08:24:59;26.27;;;12.23;;
32501;SDS011;18952;52.516;13.460;2024-02-21T08:27:26;25.17;;;12.45;;
32501;SDS011;18952;52.516;13.460;2024-02-21T08:29:54;29.58;;;12.48;;
32501;SDS011;18952;52.516;13.460;2024-02-21T08:32:20;21.90;;;12.43;;
32501;SDS011;18952;52.516;13.460;2024-02-21T08:34:49;25.75;;;12.73;;
32501;SDS011;18952;52.516;13.460;2024-02-21T08:37:17;21.70;;;12.10;;
32501;SDS011;18952;52.516;13.460;2024-02-21T08:39:47;20.90;;;11.60;;
32501;SDS011;18952;52.516;13.460;2024-02-21T08:42:14;22.45;;;12.20;;
32501;SDS011;18952;52.516;13.460;2024-02-21T08:44:42;27.37;;;12.47;;
32501;SDS011;18952;52.516;13.460;2024-02-21T08:47:09;26.05;;;13.30;;
32501;SDS011;18952;52.516;13.460;2024-02-21T08:49:36;24.60;;;12.80;;
32501;SDS011;18952;52.516;13.460;2024-02-21T08:52:05;24.25;;;12.75;;
32501;SDS011;18952;52.516;13.460;2024-02-21T08:54:32;24.08;;;12.60;;
32501;SDS011;18952;52.516;13.460;2024-02-21T08:57:00;21.60;;;12.52;;
32501;SDS011;18952;52.516;13.460;2024-02-21T08:59:26;23.85;;;13.15;;
32501;SDS011;18952;52.516;13.460;2024-02-21T09:01:53;22.67;;;12.88;;
32501;SDS011;18952;52.516;13.460;2024-02-21T09:04:20;25.17;;;13.17;;
32501;SDS011;18952;52.516;13.460;2024-02-21T09:06:48;20.98;;;13.27;;
32501;SDS011;18952;52.516;13.460;2024-02-21T09:09:15;27.45;;;13.05;;
32501;SDS011;18952;52.516;13.460;2024-02-21T09:11:43;24.52;;;13.80;;
32501;SDS011;18952;52.516;13.460;2024-02-21T09:14:10;24.23;;;13.50;;
32501;SDS011;18952;52.516;13.460;2024-02-21T09:16:38;24.77;;;13.65;;
32501;SDS011;18952;52.516;13.460;2024-02-21T09:19:05;23.80;;;13.40;;
32501;SDS011;18952;52.516;13.460;2024-02-21T09:21:33;21.23;;;13.37;;
32501;SDS011;18952;52.516;13.460;2024-02-21T09:24:01;29.47;;;14.17;;
32501;SDS011;18952;52.516;13.460;2024-02-21T09:26:28;27.40;;;14.25;;
32501;SDS011;18952;52.516;13.460;2024-02-21T09:28:54;23.50;;;14.27;;
32501;SDS011;18952;52.516;13.460;2024-02-21T09:31:21;29.98;;;14.68;;
32501;SDS011;18952;52.516;13.460;2024-02-21T09:33:52;26.77;;;14.15;;
32501;SDS011;18952;52.516;13.460;2024-02-21T09:36:19;26.98;;;14.25;;
32501;SDS011;18952;52.516;13.460;2024-02-21T09:38:47;23.40;;;14.00;;
32501;SDS011;18952;52.516;13.460;2024-02-21T09:41:17;23.67;;;13.40;;
32501;SDS011;18952;52.516;13.460;2024-02-21T09:43:53;26.95;;;14.52;;
32501;SDS011;18952;52.516;13.460;2024-02-21T09:46:44;19.00;;;13.67;;
32501;SDS011;18952;52.516;13.460;2024-02-21T09:49:34;28.73;;;13.57;;
32501;SDS011;18952;52.516;13.460;2024-02-21T09:52:03;25.30;;;13.75;;
32501;SDS011;18952;52.516;13.460;2024-02-21T09:54:35;30.73;;;14.07;;
32501;SDS011;18952;52.516;13.460;2024-02-21T09:57:03;23.75;;;13.70;;
32501;SDS011;18952;52.516;13.460;2024-02-21T09:59:31;25.90;;;13.90;;
32501;SDS011;18952;52.516;13.460;2024-02-21T10:01:59;20.10;;;13.33;;
32501;SDS011;18952;52.516;13.460;2024-02-21T10:04:30;23.30;;;13.77;;
32501;SDS011;18952;52.516;13.460;2024-02-21T10:06:57;19.97;;;13.73;;
32501;SDS011;18952;52.516;13.460;2024-02-21T10:09:27;23.45;;;13.52;;
32501;SDS011;18952;52.516;13.460;2024-02-21T10:12:21;22.15;;;13.45;;
32501;SDS011;18952;52.516;13.460;2024-02-21T10:14:46;24.57;;;13.13;;
32501;SDS011;18952;52.516;13.460;2024-02-21T10:17:17;23.85;;;14.00;;
32501;SDS011;18952;52.516;13.460;2024-02-21T10:19:44;23.52;;;13.93;;
32501;SDS011;18952;52.516;13.460;2024-02-21T10:22:14;21.90;;;12.98;;
32501;SDS011;18952;52.516;13.460;2024-02-21T10:24:42;21.08;;;12.55;;
32501;SDS011;18952;52.516;13.460;2024-02-21T10:27:09;18.73;;;12.55;;
32501;SDS011;18952;52.516;13.460;2024-02-21T10:29:37;27.05;;;12.68;;
32501;SDS011;18952;52.516;13.460;2024-02-21T10:32:11;20.67;;;12.23;;
32501;SDS011;18952;52.516;13.460;2024-02-21T10:34:41;22.10;;;12.80;;
32501;SDS011;18952;52.516;13.460;2024-02-21T10:37:11;18.65;;;12.52;;
32501;SDS011;18952;52.516;13.460;2024-02-21T10:39:41;22.23;;;12.50;;
32501;SDS011;18952;52.516;13.460;2024-02-21T10:42:11;18.27;;;11.88;;
32501;SDS011;18952;52.516;13.460;2024-02-21T10:44:39;22.23;;;11.82;;
32501;SDS011;18952;52.516;13.460;2024-02-21T10:47:10;19.30;;;11.73;;
32501;SDS011;18952;52.516;13.460;2024-02-21T10:49:44;20.95;;;12.30;;
32501;SDS011;18952;52.516;13.460;2024-02-21T10:55:20;21.00;;;11.87;;
32501;SDS011;18952;52.516;13.460;2024-02-21T10:57:53;21.35;;;12.38;;
32501;SDS011;18952;52.516;13.460;2024-02-21T11:00:26;17.25;;;11.10;;
32501;SDS011;18952;52.516;13.460;2024-02-21T11:02:56;19.27;;;11.10;;
32501;SDS011;18952;52.516;13.460;2024-02-21T11:05:27;22.73;;;12.60;;
32501;SDS011;18952;52.516;13.460;2024-02-21T11:08:06;19.25;;;11.77;;
32501;SDS011;18952;52.516;13.460;2024-02-21T11:10:36;20.63;;;11.13;;
32501;SDS011;18952;52.516;13.460;2024-02-21T11:13:10;20.03;;;11.73;;
32501;SDS011;18952;52.516;13.460;2024-02-21T11:15:38;16.88;;;11.60;;
32501;SDS011;18952;52.516;13.460;2024-02-21T11:18:06;20.00;;;11.55;;
32501;SDS011;18952;52.516;13.460;2024-02-21T11:20:37;19.55;;;12.18;;
32501;SDS011;18952;52.516;13.460;2024-02-21T11:23:04;17.85;;;11.30;;
32501;SDS011;18952;52.516;13.460;2024-02-21T11:25:31;16.35;;;10.85;;
32501;SDS011;18952;52.516;13.460;2024-02-21T11:28:03;21.77;;;11.15;;
32501;SDS011;18952;52.516;13.460;2024-02-21T11:30:31;18.33;;;11.30;;
32501;SDS011;18952;52.516;13.460;2024-02-21T11:33:05;17.27;;;10.55;;
32501;SDS011;18952;52.516;13.460;2024-02-21T11:35:34;18.65;;;10.45;;
32501;SDS011;18952;52.516;13.460;2024-02-21T11:38:14;16.20;;;10.23;;
32501;SDS011;18952;52.516;13.460;2024-02-21T11:40:45;15.70;;;9.88;;
32501;SDS011;18952;52.516;13.460;2024-02-21T11:43:14;14.50;;;10.10;;
32501;SDS011;18952;52.516;13.460;2024-02-21T11:45:41;15.02;;;9.35;;
32501;SDS011;18952;52.516;13.460;2024-02-21T11:48:08;18.20;;;8.82;;
32501;SDS011;18952;52.516;13.460;2024-02-21T11:50:35;15.53;;;8.50;;
32501;SDS011;18952;52.516;13.460;2024-02-21T11:53:07;11.95;;;7.95;;
32501;SDS011;18952;52.516;13.460;2024-02-21T11:55:37;12.23;;;7.80;;
32501;SDS011;18952;52.516;13.460;2024-02-21T11:58:05;13.85;;;8.45;;
32501;SDS011;18952;52.516;13.460;2024-02-21T12:00:35;11.13;;;7.60;;
32501;SDS011;18952;52.516;13.460;2024-02-21T12:03:04;12.45;;;7.20;;
32501;SDS011;18952;52.516;13.460;2024-02-21T12:05:32;10.35;;;6.72;;
32501;SDS011;18952;52.516;13.460;2024-02-21T12:08:00;10.73;;;6.43;;
32501;SDS011;18952;52.516;13.460;2024-02-21T12:10:28;14.98;;;6.75;;
32501;SDS011;18952;52.516;13.460;2024-02-21T12:13:11;13.82;;;6.90;;
32501;SDS011;18952;52.516;13.460;2024-02-21T12:15:42;11.97;;;6.60;;
32501;SDS011;18952;52.516;13.460;2024-02-21T12:18:13;12.23;;;6.72;;
32501;SDS011;18952;52.516;13.460;2024-02-21T12:20:40;12.25;;;6.55;;
32501;SDS011;18952;52.516;13.460;2024-02-21T12:23:12;11.20;;;6.70;;
32501;SDS011;18952;52.516;13.460;2024-02-21T12:25:40;11.00;;;6.13;;
32501;SDS011;18952;52.516;13.460;2024-02-21T12:28:08;11.50;;;6.03;;
32501;SDS011;18952;52.516;13.460;2024-02-21T12:30:36;11.50;;;6.10;;
32501;SDS011;18952;52.516;13.460;2024-02-21T12:33:07;10.23;;;6.13;;
32501;SDS011;18952;52.516;13.460;2024-02-21T12:35:34;10.25;;;5.70;;
32501;SDS011;18952;52.516;13.460;2024-02-21T12:38:02;10.13;;;6.18;;
32501;SDS011;18952;52.516;13.460;2024-02-21T12:40:34;10.23;;;5.72;;
32501;SDS011;18952;52.516;13.460;2024-02-21T12:43:03;9.38;;;5.82;;
32501;SDS011;18952;52.516;13.460;2024-02-21T12:45:30;10.68;;;6.20;;
32501;SDS011;18952;52.516;13.460;2024-02-21T12:47:58;12.88;;;5.80;;
32501;SDS011;18952;52.516;13.460;2024-02-21T12:50:26;9.88;;;5.25;;
32501;SDS011;18952;52.516;13.460;2024-02-21T12:52:53;8.20;;;4.78;;
32501;SDS011;18952;52.516;13.460;2024-02-21T12:55:20;9.98;;;5.13;;
32501;SDS011;18952;52.516;13.460;2024-02-21T12:57:47;8.85;;;5.25;;
32501;SDS011;18952;52.516;13.460;2024-02-21T13:00:16;9.05;;;4.93;;
32501;SDS011;18952;52.516;13.460;2024-02-21T13:02:44;7.67;;;4.97;;
32501;SDS011;18952;52.516;13.460;2024-02-21T13:05:11;10.95;;;5.25;;
32501;SDS011;18952;52.516;13.460;2024-02-21T13:07:39;10.70;;;4.85;;
32501;SDS011;18952;52.516;13.460;2024-02-21T13:10:06;12.87;;;5.50;;
32501;SDS011;18952;52.516;13.460;2024-02-21T13:12:34;11.07;;;5.13;;
32501;SDS011;18952;52.516;13.460;2024-02-21T13:15:04;8.07;;;5.40;;
32501;SDS011;18952;52.516;13.460;2024-02-21T13:17:35;9.15;;;4.78;;
32501;SDS011;18952;52.516;13.460;2024-02-21T13:20:04;11.10;;;5.15;;
32501;SDS011;18952;52.516;13.460;2024-02-21T13:22:33;6.82;;;4.55;;
32501;SDS011;18952;52.516;13.460;2024-02-21T13:25:00;8.80;;;4.68;;
32501;SDS011;18952;52.516;13.460;2024-02-21T13:27:28;9.68;;;5.10;;
32501;SDS011;18952;52.516;13.460;2024-02-21T13:29:55;7.17;;;4.67;;
32501;SDS011;18952;52.516;13.460;2024-02-21T13:32:23;12.93;;;5.50;;
32501;SDS011;18952;52.516;13.460;2024-02-21T13:34:54;17.33;;;5.75;;
32501;SDS011;18952;52.516;13.460;2024-02-21T13:37:23;8.85;;;5.15;;
32501;SDS011;18952;52.516;13.460;2024-02-21T13:39:56;11.03;;;5.33;;
32501;SDS011;18952;52.516;13.460;2024-02-21T13:42:23;11.18;;;5.57;;
32501;SDS011;18952;52.516;13.460;2024-02-21T13:44:53;21.08;;;6.28;;
32501;SDS011;18952;52.516;13.460;2024-02-21T13:47:24;18.70;;;6.20;;
32501;SDS011;18952;52.516;13.460;2024-02-21T13:49:50;13.27;;;6.95;;
32501;SDS011;18952;52.516;13.460;2024-02-21T13:52:17;12.68;;;6.47;;
32501;SDS011;18952;52.516;13.460;2024-02-21T13:54:45;12.27;;;6.88;;
32501;SDS011;18952;52.516;13.460;2024-02-21T13:57:14;11.82;;;6.35;;
32501;SDS011;18952;52.516;13.460;2024-02-21T13:59:44;15.02;;;6.90;;
32501;SDS011;18952;52.516;13.460;2024-02-21T14:02:10;17.20;;;7.05;;
32501;SDS011;18952;52.516;13.460;2024-02-21T14:04:39;12.73;;;6.20;;
32501;SDS011;18952;52.516;13.460;2024-02-21T14:07:13;12.80;;;6.15;;
32501;SDS011;18952;52.516;13.460;2024-02-21T14:09:41;14.35;;;6.43;;
32501;SDS011;18952;52.516;13.460;2024-02-21T14:12:08;13.27;;;6.55;;
32501;SDS011;18952;52.516;13.460;2024-02-21T14:14:36;15.23;;;6.33;;
32501;SDS011;18952;52.516;13.460;2024-02-21T14:17:07;17.73;;;6.03;;
32501;SDS011;18952;52.516;13.460;2024-02-21T14:19:35;11.52;;;5.43;;
32501;SDS011;18952;52.516;13.460;2024-02-21T14:22:04;10.88;;;5.78;;
32501;SDS011;18952;52.516;13.460;2024-02-21T14:24:31;9.17;;;4.90;;